createdAt,value
2017-07-15T00:00:14.154Z,0
2017-07-15T00:01:24.423Z,0
2017-07-15T00:02:34.707Z,0
2017-07-15T00:03:44.968Z,0
2017-07-15T00:04:55.256Z,0
2017-07-15T00:06:05.812Z,0
2017-07-15T00:07:16.105Z,0
2017-07-15T00:08:25.753Z,0
2017-07-15T00:09:35.398Z,0
2017-07-15T00:10:45.661Z,0
2017-07-15T00:11:56.181Z,0
2017-07-15T00:13:06.688Z,0
2017-07-15T00:14:16.973Z,0
2017-07-15T00:15:26.608Z,0
2017-07-15T00:16:36.875Z,0
2017-07-15T00:17:47.413Z,0
2017-07-15T00:18:56.727Z,0
2017-07-15T00:20:07.021Z,0
2017-07-15T00:21:17.300Z,0
2017-07-15T00:22:27.246Z,0
2017-07-15T00:23:37.790Z,0
2017-07-15T00:24:47.750Z,0
2017-07-15T00:25:58.031Z,0
2017-07-15T00:27:08.299Z,0
2017-07-15T00:28:18.267Z,0
2017-07-15T00:29:28.146Z,0
2017-07-15T00:30:38.427Z,0
2017-07-15T00:31:48.385Z,0
2017-07-15T00:32:58.656Z,0
2017-07-15T00:34:08.919Z,0
2017-07-15T00:35:19.444Z,0
2017-07-15T00:36:29.391Z,0
2017-07-15T00:37:39.664Z,0
2017-07-15T00:38:49.939Z,0
2017-07-15T00:40:00.210Z,0
2017-07-15T00:41:10.728Z,0
2017-07-15T00:42:20.976Z,0
2017-07-15T00:43:30.944Z,0
2017-07-15T00:44:40.890Z,0
2017-07-15T00:45:51.156Z,0
2017-07-15T00:47:01.679Z,0
2017-07-15T00:48:11.669Z,0
2017-07-15T00:49:21.941Z,0
2017-07-15T00:50:31.892Z,0
2017-07-15T00:51:42.162Z,0
2017-07-15T00:52:52.368Z,0
2017-07-15T00:54:02.650Z,0
2017-07-15T00:55:12.927Z,0
2017-07-15T00:56:23.197Z,0
2017-07-15T00:57:33.162Z,0
2017-07-15T00:58:43.667Z,0
2017-07-15T00:59:53.935Z,0
2017-07-15T01:01:04.204Z,0
2017-07-15T01:02:14.475Z,0
2017-07-15T01:03:23.802Z,0
2017-07-15T01:04:34.309Z,0
2017-07-15T01:05:44.574Z,0
2017-07-15T01:06:54.833Z,0
2017-07-15T01:08:04.475Z,0
2017-07-15T01:09:14.421Z,0
2017-07-15T01:10:24.995Z,0
2017-07-15T01:11:34.941Z,0
2017-07-15T01:12:44.876Z,0
2017-07-15T01:13:55.152Z,0
2017-07-15T01:15:05.425Z,0
2017-07-15T01:16:15.944Z,0
2017-07-15T01:17:26.214Z,0
2017-07-15T01:18:36.483Z,0
2017-07-15T01:19:46.751Z,0
2017-07-15T01:20:57.010Z,0
2017-07-15T01:22:07.217Z,0
2017-07-15T01:23:16.842Z,0
2017-07-15T01:24:27.087Z,0
2017-07-15T01:25:37.039Z,0
2017-07-15T01:26:47.300Z,0
2017-07-15T01:27:57.501Z,0
2017-07-15T01:29:07.761Z,0
2017-07-15T01:30:17.721Z,0
2017-07-15T01:31:28.035Z,0
2017-07-15T01:32:38.305Z,0
2017-07-15T01:33:48.514Z,0
2017-07-15T01:34:58.778Z,0
2017-07-15T01:36:09.031Z,0
2017-07-15T01:37:19.297Z,0
2017-07-15T01:38:29.244Z,0
2017-07-15T01:39:39.757Z,0
2017-07-15T01:40:49.703Z,0
2017-07-15T01:41:59.991Z,0
2017-07-15T01:43:10.271Z,0
2017-07-15T01:44:20.228Z,0
2017-07-15T01:45:30.437Z,0
2017-07-15T01:46:40.371Z,0
2017-07-15T01:47:50.320Z,0
2017-07-15T01:49:00.588Z,0
2017-07-15T01:50:10.867Z,0
2017-07-15T01:51:21.070Z,0
2017-07-15T01:52:30.722Z,0
2017-07-15T01:53:40.682Z,0
2017-07-15T01:54:50.940Z,0
2017-07-15T01:56:01.204Z,0
2017-07-15T01:57:11.721Z,0
2017-07-15T01:58:21.986Z,0
2017-07-15T01:59:32.391Z,0
2017-07-15T02:00:42.661Z,0
2017-07-15T02:01:52.930Z,0
2017-07-15T02:03:03.458Z,0
2017-07-15T02:04:13.406Z,0
2017-07-15T02:05:23.652Z,0
2017-07-15T02:06:33.922Z,0
2017-07-15T02:07:43.879Z,0
2017-07-15T02:08:54.078Z,0
2017-07-15T02:10:04.341Z,0
2017-07-15T02:11:14.310Z,0
2017-07-15T02:12:24.588Z,0
2017-07-15T02:13:34.542Z,0
2017-07-15T02:14:44.742Z,0
2017-07-15T02:15:55.003Z,0
2017-07-15T02:17:05.275Z,0
2017-07-15T02:18:15.546Z,4
2017-07-15T02:19:25.184Z,4
2017-07-15T02:20:35.709Z,4
2017-07-15T02:21:45.984Z,0
2017-07-15T02:22:56.240Z,4
2017-07-15T02:24:06.525Z,4
2017-07-15T02:25:16.793Z,8
2017-07-15T02:26:27.329Z,4
2017-07-15T02:27:37.613Z,8
2017-07-15T02:28:47.881Z,8
2017-07-15T02:29:58.135Z,8
2017-07-15T02:31:08.078Z,12
2017-07-15T02:32:18.592Z,12
2017-07-15T02:33:28.853Z,16
2017-07-15T02:34:39.120Z,16
2017-07-15T02:35:49.068Z,20
2017-07-15T02:36:59.314Z,24
2017-07-15T02:38:09.830Z,28
2017-07-15T02:39:19.464Z,32
2017-07-15T02:40:29.740Z,36
2017-07-15T02:41:39.995Z,40
2017-07-15T02:42:50.305Z,48
2017-07-15T02:44:00.815Z,52
2017-07-15T02:45:10.760Z,64
2017-07-15T02:46:20.426Z,76
2017-07-15T02:47:30.689Z,80
2017-07-15T02:48:40.969Z,96
2017-07-15T02:49:51.491Z,104
2017-07-15T02:51:01.438Z,120
2017-07-15T02:52:11.700Z,136
2017-07-15T02:53:21.688Z,148
2017-07-15T02:54:31.644Z,164
2017-07-15T02:55:42.160Z,184
2017-07-15T02:56:52.470Z,208
2017-07-15T02:58:02.416Z,228
2017-07-15T02:59:12.715Z,252
2017-07-15T03:00:22.347Z,272
2017-07-15T03:01:32.554Z,300
2017-07-15T03:02:42.815Z,324
2017-07-15T03:03:53.103Z,352
2017-07-15T03:05:03.385Z,384
2017-07-15T03:06:13.339Z,412
2017-07-15T03:07:23.919Z,444
2017-07-15T03:08:33.861Z,480
2017-07-15T03:09:44.139Z,524
2017-07-15T03:10:54.089Z,564
2017-07-15T03:12:04.043Z,612
2017-07-15T03:13:14.548Z,660
2017-07-15T03:14:24.814Z,708
2017-07-15T03:15:35.093Z,756
2017-07-15T03:16:44.731Z,804
2017-07-15T03:17:55.008Z,852
2017-07-15T03:19:05.200Z,900
2017-07-15T03:20:15.478Z,960
2017-07-15T03:21:25.421Z,1016
2017-07-15T03:22:35.381Z,1076
2017-07-15T03:23:45.319Z,1144
2017-07-15T03:24:55.870Z,1216
2017-07-15T03:26:05.816Z,1272
2017-07-15T03:27:15.764Z,1344
2017-07-15T03:28:25.404Z,1416
2017-07-15T03:29:35.370Z,1488
2017-07-15T03:30:45.562Z,1556
2017-07-15T03:31:55.840Z,1632
2017-07-15T03:33:06.095Z,1716
2017-07-15T03:34:16.043Z,1800
2017-07-15T03:35:25.671Z,1884
2017-07-15T03:36:35.871Z,1976
2017-07-15T03:37:45.814Z,2064
2017-07-15T03:38:56.083Z,2144
2017-07-15T03:40:06.030Z,2228
2017-07-15T03:41:15.990Z,2316
2017-07-15T03:42:26.187Z,2400
2017-07-15T03:43:36.120Z,2480
2017-07-15T03:44:46.047Z,2556
2017-07-15T03:45:55.679Z,2632
2017-07-15T03:47:05.605Z,2704
2017-07-15T03:48:15.481Z,2780
2017-07-15T03:49:25.422Z,2864
2017-07-15T03:50:35.695Z,2948
2017-07-15T03:51:45.961Z,3048
2017-07-15T03:52:56.239Z,3152
2017-07-15T03:54:06.759Z,3268
2017-07-15T03:55:17.010Z,3388
2017-07-15T03:56:27.278Z,3504
2017-07-15T03:57:37.558Z,3604
2017-07-15T03:58:47.834Z,3680
2017-07-15T03:59:58.353Z,3744
2017-07-15T04:01:08.624Z,3792
2017-07-15T04:02:18.887Z,3812
2017-07-15T04:03:29.149Z,3824
2017-07-15T04:04:39.430Z,3832
2017-07-15T04:05:49.946Z,3848
2017-07-15T04:07:00.211Z,3868
2017-07-15T04:08:10.464Z,3908
2017-07-15T04:09:20.734Z,3980
2017-07-15T04:10:30.997Z,4068
2017-07-15T04:11:41.511Z,4172
2017-07-15T04:12:51.774Z,4300
2017-07-15T04:14:02.032Z,4424
2017-07-15T04:15:12.304Z,4580
2017-07-15T04:16:22.272Z,4696
2017-07-15T04:17:32.791Z,4828
2017-07-15T04:18:43.065Z,4940
2017-07-15T04:19:52.703Z,5004
2017-07-15T04:21:02.976Z,5016
2017-07-15T04:22:13.247Z,4964
2017-07-15T04:23:23.754Z,4884
2017-07-15T04:24:34.011Z,4856
2017-07-15T04:25:44.276Z,4836
2017-07-15T04:26:54.548Z,4828
2017-07-15T04:28:04.822Z,4840
2017-07-15T04:29:15.378Z,4872
2017-07-15T04:30:25.313Z,4920
2017-07-15T04:31:35.586Z,4968
2017-07-15T04:32:45.847Z,5032
2017-07-15T04:33:56.110Z,5116
2017-07-15T04:35:06.315Z,5184
2017-07-15T04:36:16.595Z,5236
2017-07-15T04:37:26.542Z,5216
2017-07-15T04:38:36.804Z,5256
2017-07-15T04:39:47.073Z,5344
2017-07-15T04:40:57.587Z,5496
2017-07-15T04:42:07.551Z,5620
2017-07-15T04:43:17.823Z,5756
2017-07-15T04:44:28.098Z,5816
2017-07-15T04:45:38.371Z,6012
2017-07-15T04:46:48.902Z,6076
2017-07-15T04:47:58.541Z,6240
2017-07-15T04:49:08.804Z,6504
2017-07-15T04:50:19.068Z,6764
2017-07-15T04:51:29.019Z,6996
2017-07-15T04:52:39.531Z,7084
2017-07-15T04:53:49.187Z,7104
2017-07-15T04:54:59.469Z,7104
2017-07-15T04:56:09.413Z,7140
2017-07-15T04:57:19.675Z,7260
2017-07-15T04:58:30.189Z,7368
2017-07-15T04:59:40.471Z,7492
2017-07-15T05:00:50.747Z,7600
2017-07-15T05:02:01.031Z,7728
2017-07-15T05:03:11.307Z,7848
2017-07-15T05:04:21.838Z,7908
2017-07-15T05:05:32.111Z,7876
2017-07-15T05:06:42.388Z,7784
2017-07-15T05:07:52.657Z,7700
2017-07-15T05:09:02.598Z,7664
2017-07-15T05:10:12.779Z,7644
2017-07-15T05:11:23.051Z,7676
2017-07-15T05:12:32.689Z,7736
2017-07-15T05:13:42.940Z,7820
2017-07-15T05:14:52.891Z,7920
2017-07-15T05:16:02.767Z,8024
2017-07-15T05:17:12.405Z,8116
2017-07-15T05:18:22.669Z,8184
2017-07-15T05:19:32.632Z,8248
2017-07-15T05:20:42.912Z,8308
2017-07-15T05:21:53.426Z,8368
2017-07-15T05:23:03.064Z,8376
2017-07-15T05:24:13.318Z,8344
2017-07-15T05:25:23.594Z,8304
2017-07-15T05:26:33.550Z,8272
2017-07-15T05:27:44.085Z,8268
2017-07-15T05:28:54.355Z,8272
2017-07-15T05:30:04.326Z,8308
2017-07-15T05:31:14.583Z,8348
2017-07-15T05:32:24.866Z,8388
2017-07-15T05:33:35.267Z,8448
2017-07-15T05:34:45.538Z,8512
2017-07-15T05:35:55.808Z,8568
2017-07-15T05:37:06.074Z,8616
2017-07-15T05:38:16.058Z,8664
2017-07-15T05:39:26.584Z,8732
2017-07-15T05:40:36.517Z,8812
2017-07-15T05:41:46.147Z,8904
2017-07-15T05:42:56.101Z,9008
2017-07-15T05:44:06.045Z,9132
2017-07-15T05:45:16.558Z,9252
2017-07-15T05:46:26.512Z,9388
2017-07-15T05:47:36.463Z,9540
2017-07-15T05:48:46.735Z,9728
2017-07-15T05:49:56.686Z,9920
2017-07-15T05:51:06.907Z,10096
2017-07-15T05:52:17.213Z,10296
2017-07-15T05:53:26.845Z,10548
2017-07-15T05:54:37.114Z,10924
2017-07-15T05:55:47.381Z,11392
2017-07-15T05:56:57.909Z,11756
2017-07-15T05:58:08.162Z,11916
2017-07-15T05:59:18.416Z,12012
2017-07-15T06:00:28.710Z,12032
2017-07-15T06:01:38.971Z,11904
2017-07-15T06:02:49.181Z,11704
2017-07-15T06:03:59.139Z,11508
2017-07-15T06:05:09.109Z,11320
2017-07-15T06:06:19.046Z,11180
2017-07-15T06:07:29.310Z,11068
2017-07-15T06:08:39.504Z,10988
2017-07-15T06:09:49.136Z,10924
2017-07-15T06:10:59.397Z,10868
2017-07-15T06:12:09.356Z,10832
2017-07-15T06:13:19.623Z,10808
2017-07-15T06:14:30.212Z,10804
2017-07-15T06:15:40.477Z,10792
2017-07-15T06:16:50.757Z,10728
2017-07-15T06:18:01.025Z,10648
2017-07-15T06:19:10.963Z,10568
2017-07-15T06:20:20.862Z,10516
2017-07-15T06:21:31.147Z,10488
2017-07-15T06:22:41.417Z,10476
2017-07-15T06:23:51.679Z,10472
2017-07-15T06:25:01.648Z,10520
2017-07-15T06:26:12.173Z,10580
2017-07-15T06:27:22.437Z,10628
2017-07-15T06:28:32.386Z,10664
2017-07-15T06:29:42.658Z,10716
2017-07-15T06:30:52.941Z,10760
2017-07-15T06:32:03.456Z,10816
2017-07-15T06:33:13.749Z,10860
2017-07-15T06:34:24.025Z,10896
2017-07-15T06:35:33.981Z,10924
2017-07-15T06:36:43.934Z,10956
2017-07-15T06:37:54.444Z,10984
2017-07-15T06:39:04.714Z,11012
2017-07-15T06:40:14.983Z,11032
2017-07-15T06:41:24.955Z,11040
2017-07-15T06:42:34.886Z,11080
2017-07-15T06:43:45.458Z,11116
2017-07-15T06:44:55.721Z,11136
2017-07-15T06:46:05.997Z,11168
2017-07-15T06:47:15.948Z,11200
2017-07-15T06:48:26.230Z,11248
2017-07-15T06:49:36.808Z,11292
2017-07-15T06:50:46.753Z,11348
2017-07-15T06:51:57.026Z,11400
2017-07-15T06:53:07.296Z,11444
2017-07-15T06:54:17.243Z,11488
2017-07-15T06:55:27.771Z,11536
2017-07-15T06:56:37.731Z,11596
2017-07-15T06:57:47.995Z,11644
2017-07-15T06:58:58.266Z,11692
2017-07-15T07:00:08.211Z,11744
2017-07-15T07:01:18.425Z,11788
2017-07-15T07:02:28.706Z,11828
2017-07-15T07:03:38.972Z,11868
2017-07-15T07:04:49.251Z,11952
2017-07-15T07:05:59.202Z,12012
2017-07-15T07:07:08.783Z,12052
2017-07-15T07:08:18.747Z,12092
2017-07-15T07:09:28.391Z,12132
2017-07-15T07:10:38.671Z,12172
2017-07-15T07:11:48.605Z,12224
2017-07-15T07:12:58.864Z,12276
2017-07-15T07:14:08.827Z,12300
2017-07-15T07:15:19.091Z,12332
2017-07-15T07:16:28.719Z,12360
2017-07-15T07:17:38.351Z,12396
2017-07-15T07:18:48.868Z,12424
2017-07-15T07:19:58.500Z,12464
2017-07-15T07:21:08.465Z,12520
2017-07-15T07:22:18.416Z,12588
2017-07-15T07:23:28.663Z,12640
2017-07-15T07:24:38.867Z,12712
2017-07-15T07:25:48.830Z,12784
2017-07-15T07:26:59.088Z,12832
2017-07-15T07:28:09.057Z,12900
2017-07-15T07:29:19.006Z,12968
2017-07-15T07:30:29.530Z,13028
2017-07-15T07:31:39.811Z,13104
2017-07-15T07:32:49.777Z,13172
2017-07-15T07:34:00.049Z,13244
2017-07-15T07:35:09.986Z,13324
2017-07-15T07:36:20.529Z,13388
2017-07-15T07:37:30.795Z,13452
2017-07-15T07:38:40.732Z,13496
2017-07-15T07:39:51.012Z,13524
2017-07-15T07:41:00.653Z,13572
2017-07-15T07:42:10.862Z,13636
2017-07-15T07:43:21.134Z,13712
2017-07-15T07:44:31.402Z,13740
2017-07-15T07:45:41.676Z,13772
2017-07-15T07:46:51.946Z,13796
2017-07-15T07:48:02.473Z,13796
2017-07-15T07:49:12.760Z,13808
2017-07-15T07:50:22.712Z,13840
2017-07-15T07:51:33.222Z,13896
2017-07-15T07:52:43.483Z,13972
2017-07-15T07:53:53.693Z,14060
2017-07-15T07:55:03.969Z,14144
2017-07-15T07:56:14.258Z,14236
2017-07-15T07:57:24.528Z,14332
2017-07-15T07:58:34.478Z,14424
2017-07-15T07:59:44.681Z,14540
2017-07-15T08:00:54.945Z,14652
2017-07-15T08:02:04.925Z,14776
2017-07-15T08:03:15.194Z,14924
2017-07-15T08:04:25.144Z,15064
2017-07-15T08:05:34.721Z,15204
2017-07-15T08:06:45.021Z,15332
2017-07-15T08:07:54.659Z,15444
2017-07-15T08:09:04.621Z,15564
2017-07-15T08:10:14.885Z,15640
2017-07-15T08:11:25.407Z,15692
2017-07-15T08:12:35.701Z,15792
2017-07-15T08:13:45.378Z,15920
2017-07-15T08:14:55.352Z,16092
2017-07-15T08:16:05.308Z,16204
2017-07-15T08:17:15.877Z,16292
2017-07-15T08:18:25.817Z,16388
2017-07-15T08:19:36.105Z,16540
2017-07-15T08:20:46.371Z,16768
2017-07-15T08:21:56.023Z,17036
2017-07-15T08:23:06.548Z,17216
2017-07-15T08:24:16.500Z,17284
2017-07-15T08:25:26.769Z,17336
2017-07-15T08:26:37.048Z,17368
2017-07-15T08:27:47.326Z,17556
2017-07-15T08:28:57.237Z,17756
2017-07-15T08:30:06.874Z,17996
2017-07-15T08:31:17.145Z,18196
2017-07-15T08:32:27.412Z,18364
2017-07-15T08:33:37.364Z,18560
2017-07-15T08:34:47.570Z,18736
2017-07-15T08:35:57.514Z,18888
2017-07-15T08:37:07.806Z,19028
2017-07-15T08:38:18.080Z,31424
2017-07-15T08:39:28.355Z,49504
2017-07-15T08:40:38.883Z,54112
2017-07-15T08:41:48.865Z,56160
2017-07-15T08:42:58.822Z,57632
2017-07-15T08:44:09.118Z,58464
2017-07-15T08:45:19.073Z,57632
2017-07-15T08:46:29.285Z,58624
2017-07-15T08:47:39.566Z,59584
2017-07-15T08:48:49.855Z,61760
2017-07-15T08:50:00.131Z,60768
2017-07-15T08:51:10.074Z,61696
2017-07-15T08:52:20.338Z,61888
2017-07-15T08:53:30.615Z,60544
2017-07-15T08:54:40.573Z,60832
2017-07-15T08:55:50.859Z,59872
2017-07-15T08:57:01.151Z,60864
2017-07-15T08:58:11.684Z,61696
2017-07-15T08:59:21.969Z,59840
2017-07-15T09:00:32.255Z,62176
2017-07-15T09:01:42.223Z,64288
2017-07-15T09:02:52.193Z,65888
2017-07-15T09:04:02.134Z,68416
2017-07-15T09:05:12.427Z,61568
2017-07-15T09:06:22.402Z,24672
2017-07-15T09:07:32.381Z,26112
2017-07-15T09:08:42.665Z,27552
2017-07-15T09:09:53.197Z,28224
2017-07-15T09:11:02.834Z,75520
2017-07-15T09:12:13.118Z,77344
2017-07-15T09:13:23.408Z,77280
2017-07-15T09:14:33.710Z,76352
2017-07-15T09:15:43.593Z,40736
2017-07-15T09:16:53.566Z,29088
2017-07-15T09:18:03.889Z,36096
2017-07-15T09:19:13.875Z,53440
2017-07-15T09:20:24.160Z,25056
2017-07-15T09:21:34.371Z,23296
2017-07-15T09:22:44.647Z,23584
2017-07-15T09:23:54.607Z,24192
2017-07-15T09:25:04.867Z,24832
2017-07-15T09:26:14.833Z,30048
2017-07-15T09:27:25.365Z,25184
2017-07-15T09:28:35.644Z,24448
2017-07-15T09:29:45.919Z,24672
2017-07-15T09:30:56.200Z,25152
2017-07-15T09:32:06.492Z,24992
2017-07-15T09:33:16.714Z,25632
2017-07-15T09:34:26.678Z,27872
2017-07-15T09:35:36.960Z,30720
2017-07-15T09:36:47.218Z,88928
2017-07-15T09:37:57.549Z,95136
2017-07-15T09:39:07.753Z,99424
2017-07-15T09:40:18.039Z,44032
2017-07-15T09:41:28.008Z,89536
2017-07-15T09:42:37.975Z,95296
2017-07-15T09:43:48.252Z,42944
2017-07-15T09:44:58.838Z,30784
2017-07-15T09:46:09.120Z,27584
2017-07-15T09:47:19.077Z,26272
2017-07-15T09:48:29.360Z,23584
2017-07-15T09:49:39.649Z,22656
2017-07-15T09:50:50.189Z,22752
2017-07-15T09:52:00.468Z,22432
2017-07-15T09:53:10.433Z,22304
2017-07-15T09:54:20.730Z,23104
2017-07-15T09:55:31.001Z,24672
2017-07-15T09:56:41.543Z,28768
2017-07-15T09:57:51.806Z,100064
2017-07-15T09:59:01.779Z,94912
2017-07-15T10:00:12.054Z,96384
2017-07-15T10:01:22.333Z,96896
2017-07-15T10:02:32.598Z,96064
2017-07-15T10:03:42.862Z,91968
2017-07-15T10:04:53.147Z,31392
2017-07-15T10:06:03.489Z,30720
2017-07-15T10:07:13.447Z,29952
2017-07-15T10:08:23.971Z,29056
2017-07-15T10:09:33.933Z,26016
2017-07-15T10:10:44.202Z,24640
2017-07-15T10:11:54.482Z,24608
2017-07-15T10:13:04.755Z,25088
2017-07-15T10:14:14.986Z,26112
2017-07-15T10:15:25.272Z,27456
2017-07-15T10:16:35.553Z,85440
2017-07-15T10:17:45.524Z,79456
2017-07-15T10:18:55.791Z,100416
2017-07-15T10:20:06.352Z,121792
2017-07-15T10:21:16.642Z,120064
2017-07-15T10:22:26.601Z,119392
2017-07-15T10:23:36.560Z,115072
2017-07-15T10:24:46.217Z,114944
2017-07-15T10:25:56.737Z,119392
2017-07-15T10:27:07.018Z,63520
2017-07-15T10:28:17.318Z,32704
2017-07-15T10:29:27.294Z,30528
2017-07-15T10:30:37.283Z,28704
2017-07-15T10:31:47.883Z,26944
2017-07-15T10:32:57.849Z,25376
2017-07-15T10:34:08.124Z,23840
2017-07-15T10:35:18.395Z,21952
2017-07-15T10:36:28.382Z,20000
2017-07-15T10:37:38.587Z,18496
2017-07-15T10:38:48.865Z,18208
2017-07-15T10:39:59.135Z,18112
2017-07-15T10:41:09.416Z,18656
2017-07-15T10:42:19.399Z,19584
2017-07-15T10:43:29.917Z,20992
2017-07-15T10:44:40.206Z,22080
2017-07-15T10:45:49.867Z,22144
2017-07-15T10:46:59.808Z,22784
2017-07-15T10:48:09.783Z,22272
2017-07-15T10:49:20.300Z,20768
2017-07-15T10:50:30.592Z,20480
2017-07-15T10:51:40.869Z,21056
2017-07-15T10:52:50.502Z,22400
2017-07-15T10:54:00.793Z,24416
2017-07-15T10:55:11.311Z,108160
2017-07-15T10:56:20.961Z,101952
2017-07-15T10:57:31.240Z,122208
2017-07-15T10:58:41.496Z,125632
2017-07-15T10:59:51.775Z,124128
2017-07-15T11:01:01.992Z,123904
2017-07-15T11:02:12.288Z,125536
2017-07-15T11:03:22.570Z,124224
2017-07-15T11:04:32.856Z,124416
2017-07-15T11:05:42.512Z,126144
2017-07-15T11:06:53.052Z,129120
2017-07-15T11:08:03.359Z,135008
2017-07-15T11:09:13.648Z,129888
2017-07-15T11:10:23.626Z,128640
2017-07-15T11:11:33.920Z,136064
2017-07-15T11:12:44.464Z,124128
2017-07-15T11:13:54.434Z,121408
2017-07-15T11:15:04.719Z,45664
2017-07-15T11:16:15.051Z,43424
2017-07-15T11:17:25.345Z,30592
2017-07-15T11:18:35.887Z,27648
2017-07-15T11:19:46.167Z,25824
2017-07-15T11:20:56.453Z,25184
2017-07-15T11:22:06.406Z,24512
2017-07-15T11:23:16.376Z,25344
2017-07-15T11:24:26.941Z,26944
2017-07-15T11:25:37.230Z,29216
2017-07-15T11:26:47.507Z,33952
2017-07-15T11:27:57.815Z,67680
2017-07-15T11:29:07.788Z,130208
2017-07-15T11:30:18.008Z,133632
2017-07-15T11:31:28.280Z,131488
2017-07-15T11:32:38.539Z,128352
2017-07-15T11:33:48.807Z,122752
2017-07-15T11:34:59.095Z,126336
2017-07-15T11:36:09.620Z,108384
2017-07-15T11:37:19.897Z,53280
2017-07-15T11:38:29.862Z,38912
2017-07-15T11:39:39.506Z,36608
2017-07-15T11:40:49.469Z,37728
2017-07-15T11:41:59.990Z,102208
2017-07-15T11:43:10.272Z,33664
2017-07-15T11:44:20.563Z,38976
2017-07-15T11:45:30.856Z,142592
2017-07-15T11:46:41.156Z,136000
2017-07-15T11:47:51.358Z,132480
2017-07-15T11:49:01.634Z,135584
2017-07-15T11:50:11.928Z,135936
2017-07-15T11:51:21.593Z,71872
2017-07-15T11:52:31.575Z,50048
2017-07-15T11:53:41.793Z,133760
2017-07-15T11:54:52.098Z,134784
2017-07-15T11:56:02.366Z,123456
2017-07-15T11:57:12.634Z,122752
2017-07-15T11:58:21.979Z,127968
2017-07-15T11:59:32.514Z,42592
2017-07-15T12:00:42.801Z,133504
2017-07-15T12:01:53.082Z,118688
2017-07-15T12:03:03.367Z,124448
2017-07-15T12:04:13.641Z,123328
2017-07-15T12:05:24.220Z,127904
2017-07-15T12:06:34.509Z,129952
2017-07-15T12:07:44.805Z,129440
2017-07-15T12:08:55.079Z,125888
2017-07-15T12:10:05.354Z,126368
2017-07-15T12:11:15.897Z,124352
2017-07-15T12:12:26.199Z,126592
2017-07-15T12:13:36.484Z,134272
2017-07-15T12:14:45.808Z,134400
2017-07-15T12:15:56.087Z,131136
2017-07-15T12:17:06.304Z,129088
2017-07-15T12:18:16.591Z,127296
2017-07-15T12:19:26.881Z,126048
2017-07-15T12:20:37.175Z,126720
2017-07-15T12:21:47.456Z,126528
2017-07-15T12:22:57.964Z,78144
2017-07-15T12:24:08.247Z,36768
2017-07-15T12:25:18.543Z,129472
2017-07-15T12:26:28.839Z,129632
2017-07-15T12:27:39.122Z,136384
2017-07-15T12:28:49.656Z,138304
2017-07-15T12:29:59.959Z,132736
2017-07-15T12:31:10.252Z,127232
2017-07-15T12:32:20.543Z,129728
2017-07-15T12:33:30.520Z,127072
2017-07-15T12:34:40.728Z,125248
2017-07-15T12:35:51.002Z,126784
2017-07-15T12:37:01.299Z,133312
2017-07-15T12:38:11.260Z,139968
2017-07-15T12:39:20.900Z,137632
2017-07-15T12:40:31.119Z,81248
2017-07-15T12:41:40.765Z,134528
2017-07-15T12:42:51.047Z,41728
2017-07-15T12:44:00.716Z,133920
2017-07-15T12:45:10.677Z,133280
2017-07-15T12:46:21.204Z,133184
2017-07-15T12:47:31.176Z,133728
2017-07-15T12:48:41.461Z,133952
2017-07-15T12:49:51.149Z,134752
2017-07-15T12:51:01.452Z,133664
2017-07-15T12:52:12.003Z,130144
2017-07-15T12:53:22.279Z,132256
2017-07-15T12:54:32.557Z,130464
2017-07-15T12:55:42.537Z,131456
2017-07-15T12:56:52.816Z,135968
2017-07-15T12:58:03.339Z,132000
2017-07-15T12:59:13.643Z,128768
2017-07-15T13:00:23.290Z,131712
2017-07-15T13:01:33.569Z,126176
2017-07-15T13:02:43.849Z,126592
2017-07-15T13:03:54.437Z,141088
2017-07-15T13:05:04.722Z,138944
2017-07-15T13:06:14.986Z,128480
2017-07-15T13:07:25.285Z,39328
2017-07-15T13:08:35.572Z,122560
2017-07-15T13:09:45.141Z,49536
2017-07-15T13:10:55.119Z,46272
2017-07-15T13:12:05.410Z,110528
2017-07-15T13:13:15.685Z,113504
2017-07-15T13:14:25.661Z,122944
2017-07-15T13:15:36.207Z,136768
2017-07-15T13:16:46.471Z,42176
2017-07-15T13:17:56.745Z,44896
2017-07-15T13:19:07.013Z,118048
2017-07-15T13:20:17.332Z,135840
2017-07-15T13:21:27.856Z,134048
2017-07-15T13:22:38.126Z,133696
2017-07-15T13:23:48.404Z,133920
2017-07-15T13:24:58.701Z,124704
2017-07-15T13:26:08.970Z,63424
2017-07-15T13:27:19.521Z,57664
2017-07-15T13:28:29.488Z,56096
2017-07-15T13:29:39.789Z,53696
2017-07-15T13:30:50.081Z,56704
2017-07-15T13:32:00.360Z,65152
2017-07-15T13:33:10.892Z,125056
2017-07-15T13:34:21.167Z,142560
2017-07-15T13:35:31.137Z,82368
2017-07-15T13:36:40.777Z,65696
2017-07-15T13:37:51.048Z,56352
2017-07-15T13:39:01.598Z,143296
2017-07-15T13:40:11.562Z,148928
2017-07-15T13:41:21.846Z,86944
2017-07-15T13:42:32.115Z,142880
2017-07-15T13:43:42.399Z,140640
2017-07-15T13:44:52.942Z,135680
2017-07-15T13:46:03.222Z,123168
2017-07-15T13:47:13.498Z,110560
2017-07-15T13:48:23.477Z,100544
2017-07-15T13:49:33.761Z,127712
2017-07-15T13:50:44.360Z,130624
2017-07-15T13:51:54.336Z,128576
2017-07-15T13:53:04.612Z,128352
2017-07-15T13:54:14.884Z,122912
2017-07-15T13:55:25.170Z,120512
2017-07-15T13:56:35.699Z,87776
2017-07-15T13:57:45.667Z,118848
2017-07-15T13:58:55.633Z,128704
2017-07-15T14:00:05.602Z,128640
2017-07-15T14:01:15.870Z,125504
2017-07-15T14:02:26.404Z,124384
2017-07-15T14:03:36.357Z,120224
2017-07-15T14:04:46.314Z,119232
2017-07-15T14:05:56.590Z,125760
2017-07-15T14:07:06.865Z,126976
2017-07-15T14:08:17.083Z,124704
2017-07-15T14:09:27.348Z,124288
2017-07-15T14:10:37.639Z,128640
2017-07-15T14:11:47.924Z,130464
2017-07-15T14:12:58.203Z,121728
2017-07-15T14:14:08.733Z,118656
2017-07-15T14:15:19.039Z,118656
2017-07-15T14:16:29.312Z,123040
2017-07-15T14:17:38.961Z,121440
2017-07-15T14:18:48.924Z,120960
2017-07-15T14:19:59.474Z,116736
2017-07-15T14:21:09.746Z,114688
2017-07-15T14:22:20.007Z,114336
2017-07-15T14:23:30.274Z,111072
2017-07-15T14:24:40.556Z,81216
2017-07-15T14:25:50.783Z,93664
2017-07-15T14:27:01.070Z,40736
2017-07-15T14:28:11.040Z,29760
2017-07-15T14:29:21.474Z,36096
2017-07-15T14:30:31.768Z,28192
2017-07-15T14:31:42.293Z,24928
2017-07-15T14:32:52.272Z,21920
2017-07-15T14:34:02.548Z,20704
2017-07-15T14:35:12.809Z,20352
2017-07-15T14:36:23.094Z,17856
2017-07-15T14:37:33.645Z,15560
2017-07-15T14:38:43.924Z,13528
2017-07-15T14:39:54.202Z,11936
2017-07-15T14:41:04.480Z,10516
2017-07-15T14:42:14.451Z,9640
2017-07-15T14:43:24.980Z,9136
2017-07-15T14:44:35.250Z,8772
2017-07-15T14:45:45.534Z,8600
2017-07-15T14:46:55.526Z,8588
2017-07-15T14:48:05.820Z,8548
2017-07-15T14:49:16.360Z,8432
2017-07-15T14:50:25.998Z,8284
2017-07-15T14:51:36.281Z,8104
2017-07-15T14:52:46.247Z,7856
2017-07-15T14:53:56.564Z,7636
2017-07-15T14:55:07.129Z,7476
2017-07-15T14:56:16.774Z,7320
2017-07-15T14:57:26.780Z,6972
2017-07-15T14:58:37.111Z,6520
2017-07-15T14:59:47.393Z,6052
2017-07-15T15:00:57.604Z,5552
2017-07-15T15:02:07.879Z,4964
2017-07-15T15:03:18.153Z,4428
2017-07-15T15:04:28.417Z,3852
2017-07-15T15:05:38.701Z,3796
2017-07-15T15:06:49.242Z,3848
2017-07-15T15:07:59.526Z,3824
2017-07-15T15:09:09.490Z,4156
2017-07-15T15:10:19.761Z,4188
2017-07-15T15:11:30.036Z,4460
2017-07-15T15:12:40.247Z,4748
2017-07-15T15:13:50.530Z,5216
2017-07-15T15:15:00.528Z,5756
2017-07-15T15:16:10.804Z,6404
2017-07-15T15:17:21.070Z,7136
2017-07-15T15:18:31.605Z,7788
2017-07-15T15:19:41.561Z,8256
2017-07-15T15:20:51.844Z,8800
2017-07-15T15:22:02.137Z,9404
2017-07-15T15:23:12.402Z,10392
2017-07-15T15:24:22.927Z,11716
2017-07-15T15:25:33.208Z,12760
2017-07-15T15:26:43.485Z,13272
2017-07-15T15:27:53.441Z,13120